createdAt,value
2019-05-19T14:10:18.704Z,94.52
2019-05-19T14:11:58.172Z,90.28
2019-05-19T14:13:37.572Z,89.32
2019-05-19T14:15:17.030Z,88.27
2019-05-19T14:16:56.479Z,88.37
2019-05-19T14:18:35.943Z,89.41
2019-05-19T14:20:15.417Z,89.01
2019-05-19T14:21:54.976Z,88.11
2019-05-19T14:23:34.474Z,89.79
2019-05-19T14:25:13.954Z,89.57
2019-05-19T14:26:53.384Z,89.95
2019-05-19T14:28:32.792Z,89.46
2019-05-19T14:30:12.321Z,89.93
2019-05-19T14:31:51.751Z,89.83
2019-05-19T14:33:31.206Z,90.31
2019-05-19T14:35:10.633Z,89.57
2019-05-19T14:36:50.047Z,85.8
2019-05-19T14:38:29.451Z,80.79
2019-05-19T14:40:08.806Z,80.78
2019-05-19T14:41:48.301Z,79.4
2019-05-19T14:43:27.750Z,80.37
2019-05-19T14:45:07.237Z,78.59
2019-05-19T14:46:46.799Z,79.61
2019-05-19T14:48:26.158Z,80.39
2019-05-19T14:50:05.650Z,81.52
2019-05-19T14:51:45.154Z,82.36
2019-05-19T14:53:24.629Z,83.23
2019-05-19T14:55:04.391Z,82.36
2019-05-19T14:56:43.835Z,83.52
2019-05-19T14:58:23.229Z,82.29
2019-05-19T15:00:02.594Z,82.43
2019-05-19T15:01:42.015Z,81.76
2019-05-19T15:03:21.520Z,82.18
2019-05-19T15:05:00.934Z,81.78
2019-05-19T15:06:40.458Z,82.67
2019-05-19T15:08:19.870Z,82.61
2019-05-19T15:09:59.296Z,82.18
2019-05-19T15:11:38.767Z,82.42
2019-05-19T15:13:18.234Z,83.21
2019-05-19T15:14:57.675Z,80.98
2019-05-19T15:16:37.193Z,81.29
2019-05-19T15:18:16.577Z,80.97
2019-05-19T15:19:55.992Z,81.59
2019-05-19T15:21:35.295Z,80.92
2019-05-19T15:23:14.850Z,81.23
2019-05-19T15:24:54.507Z,81.07
2019-05-19T15:26:33.998Z,80.75
2019-05-19T15:28:13.426Z,80.04
2019-05-19T15:29:52.799Z,79.76
2019-05-19T15:31:48.119Z,80.62
2019-05-19T15:33:27.876Z,80.11
2019-05-19T15:35:16.197Z,80.07
2019-05-19T15:36:55.741Z,80.27
2019-05-19T15:40:22.141Z,79.94
2019-05-19T15:42:01.690Z,79.39
2019-05-19T15:43:41.129Z,79.55
2019-05-19T15:45:21.673Z,79.82
2019-05-19T15:47:00.251Z,78.99
2019-05-19T15:48:39.795Z,78.7
2019-05-19T15:50:19.240Z,77.69
2019-05-19T15:52:06.153Z,77.01
2019-05-19T15:53:46.039Z,76.65
2019-05-19T15:55:25.547Z,75.43
2019-05-19T15:57:05.270Z,76.38
2019-05-19T15:58:44.922Z,74.9
2019-05-19T16:00:24.476Z,75.64
2019-05-19T16:02:04.072Z,75.84
2019-05-19T16:03:43.607Z,74.98
2019-05-19T16:05:23.174Z,72.78
2019-05-19T16:07:02.244Z,72.47
2019-05-19T16:08:41.661Z,73.39
2019-05-19T16:10:21.341Z,75.13
2019-05-19T16:12:00.861Z,74.11
2019-05-19T16:13:40.520Z,74.13
2019-05-19T16:15:20.021Z,72.58
2019-05-19T16:16:59.600Z,72.6
2019-05-19T16:18:40.966Z,72.19
2019-05-19T16:20:21.328Z,72.62
2019-05-19T16:22:00.769Z,72.06
2019-05-19T16:23:39.672Z,70.57
2019-05-19T16:25:19.103Z,70.67
2019-05-19T16:27:01.378Z,70.91
2019-05-19T16:28:40.808Z,68.09
2019-05-19T16:30:20.250Z,74.06
2019-05-19T16:31:59.693Z,70.5
2019-05-19T16:33:39.197Z,69.49
2019-05-19T16:35:18.639Z,72.95
2019-05-19T16:36:58.193Z,70.05
2019-05-19T16:38:37.623Z,69.2
2019-05-19T16:40:17.154Z,73.77
2019-05-19T16:41:56.655Z,69.79
2019-05-19T16:43:36.239Z,72.45
2019-05-19T16:45:15.739Z,68.55
2019-05-19T16:46:55.266Z,71.42
2019-05-19T16:48:34.935Z,67.77
2019-05-19T16:50:14.571Z,70.77
2019-05-19T16:51:53.982Z,66.71
2019-05-19T16:53:33.470Z,69.59
2019-05-19T16:55:12.919Z,70.36
2019-05-19T16:56:52.533Z,66.4
2019-05-19T16:58:46.111Z,69.55
2019-05-19T17:00:25.648Z,71.77
2019-05-19T17:02:09.792Z,68.63
2019-05-19T17:03:49.471Z,73.29
2019-05-19T17:05:28.980Z,70.55
2019-05-19T17:07:08.486Z,70.34
2019-05-19T17:08:47.902Z,69.48
2019-05-19T17:10:27.429Z,74.08
2019-05-19T17:12:09.762Z,70.65
2019-05-19T17:13:49.191Z,71.12
2019-05-19T17:15:28.620Z,70.93
2019-05-19T17:17:08.156Z,72.08
2019-05-19T17:18:47.574Z,72.38
2019-05-19T17:20:30.275Z,71.56
2019-05-19T17:22:09.959Z,71.25
2019-05-19T17:23:49.465Z,71.49
2019-05-19T17:25:28.489Z,72.67
2019-05-19T17:27:08.089Z,73.29
2019-05-19T17:29:04.623Z,73.98
2019-05-19T17:30:45.927Z,74.7
2019-05-19T17:32:25.334Z,75.21
2019-05-19T17:34:04.882Z,75.57
2019-05-19T17:35:44.393Z,76.17
2019-05-19T17:37:23.788Z,76.47
2019-05-19T17:39:03.255Z,76.76
2019-05-19T17:40:42.985Z,77.15
2019-05-19T17:42:22.383Z,77.44
2019-05-19T17:44:01.860Z,77.36
2019-05-19T17:45:41.338Z,77.95
2019-05-19T17:47:20.348Z,78.75
2019-05-19T17:49:00.013Z,80.11
2019-05-19T17:50:39.538Z,80.1
2019-05-19T17:52:18.956Z,80.03
2019-05-19T17:53:58.507Z,80.04
2019-05-19T17:55:37.982Z,79.91
2019-05-19T17:57:17.459Z,79.53
2019-05-19T17:58:56.814Z,78.71
2019-05-19T18:00:36.424Z,78.85
2019-05-19T18:02:16.013Z,78.69
2019-05-19T18:03:55.429Z,78.56
2019-05-19T18:05:34.611Z,78.14
2019-05-19T18:07:14.280Z,78.62
2019-05-19T18:08:54.764Z,79.48
2019-05-19T18:10:34.271Z,79.99
2019-05-19T18:12:13.753Z,80.49
2019-05-19T18:13:54.384Z,80.11
2019-05-19T18:15:33.746Z,80.94
2019-05-19T18:17:13.307Z,82.03
2019-05-19T18:18:52.634Z,82.71
2019-05-19T18:20:32.076Z,83.58
2019-05-19T18:22:11.515Z,84.41
2019-05-19T18:23:51.001Z,85.07
2019-05-19T18:25:30.628Z,85.76
2019-05-19T18:27:10.399Z,86.22
2019-05-19T18:28:49.854Z,86.64
2019-05-19T18:30:29.333Z,86.5
2019-05-19T18:32:08.760Z,86.48
2019-05-19T18:33:48.252Z,86.9
2019-05-19T18:35:27.645Z,87.02
2019-05-19T18:37:07.105Z,86.81
2019-05-19T18:38:49.917Z,86.95
2019-05-19T18:40:29.332Z,87.22
2019-05-19T18:42:08.827Z,87.44
2019-05-19T18:43:48.298Z,87.73
2019-05-19T18:45:27.885Z,87.91
2019-05-19T18:47:07.588Z,87.95
2019-05-19T18:48:47.029Z,88.06
2019-05-19T18:50:26.182Z,88.39
2019-05-19T18:52:05.071Z,88.56
2019-05-19T18:53:44.591Z,88.6
2019-05-19T18:55:24.357Z,88.56
2019-05-19T18:57:03.376Z,88.51
2019-05-19T18:58:42.997Z,88.42
2019-05-19T19:00:22.514Z,88.38
2019-05-19T19:02:01.590Z,88.2
2019-05-19T19:03:41.289Z,88.15
2019-05-19T19:05:22.383Z,88.12
2019-05-19T19:07:02.053Z,88.26
2019-05-19T19:08:41.701Z,88.27
2019-05-19T19:10:22.679Z,88.42
2019-05-19T19:12:02.389Z,88.29
2019-05-19T19:13:42.202Z,88.39
2019-05-19T19:15:21.854Z,88.62
2019-05-19T19:17:01.604Z,88.68
2019-05-19T19:18:41.182Z,88.58
2019-05-19T19:20:20.951Z,88.5
2019-05-19T19:22:00.589Z,88.57
2019-05-19T19:23:40.471Z,88.55
2019-05-19T19:25:20.389Z,88.29
2019-05-19T19:27:00.105Z,88.32
2019-05-19T19:28:39.923Z,88.44
2019-05-19T19:30:19.975Z,88.73
2019-05-19T19:31:59.729Z,88.87
2019-05-19T19:33:39.526Z,89.06
2019-05-19T19:35:19.115Z,89.39
2019-05-19T19:36:58.976Z,89.86
2019-05-19T19:38:38.174Z,90.08
2019-05-19T19:40:17.264Z,90.43
2019-05-19T19:41:57.218Z,90.5
2019-05-19T19:43:36.921Z,90.16
2019-05-19T19:45:16.658Z,90.12
2019-05-19T19:46:57.650Z,89.69
2019-05-19T19:48:37.271Z,89.5
2019-05-19T19:50:16.929Z,89.46
2019-05-19T19:51:56.773Z,89.29
2019-05-19T19:53:36.367Z,89.13
2019-05-19T19:55:16.731Z,89.02
2019-05-19T19:56:56.510Z,88.82
2019-05-19T19:58:38.161Z,88.69
2019-05-19T20:00:20.006Z,88.46
2019-05-19T20:01:59.217Z,88.56
2019-05-19T20:03:42.015Z,88.6
2019-05-19T20:05:23.156Z,88.6
2019-05-19T20:07:02.758Z,88.7
2019-05-19T20:08:43.706Z,88.87
2019-05-19T20:10:23.533Z,88.96
2019-05-19T20:12:03.625Z,89.31
2019-05-19T20:13:43.487Z,89.38
2019-05-19T20:15:23.121Z,89.44
2019-05-19T20:17:14.697Z,89.38
2019-05-19T20:18:54.258Z,89.57
2019-05-19T20:20:33.932Z,89.8
2019-05-19T20:22:13.426Z,89.76
2019-05-19T20:23:53.686Z,89.97
2019-05-19T20:25:33.373Z,90.14
2019-05-19T20:27:15.487Z,90.41
2019-05-19T20:28:55.069Z,90.53
2019-05-19T20:30:38.319Z,90.69
2019-05-19T20:32:18.098Z,90.82
2019-05-19T20:33:58.887Z,90.98
2019-05-19T20:35:38.439Z,91.08
2019-05-19T20:37:18.102Z,91.23
2019-05-19T20:38:57.261Z,91.45
2019-05-19T20:40:36.999Z,91.71
2019-05-19T20:42:16.816Z,91.98
2019-05-19T20:43:56.584Z,92.05
2019-05-19T20:45:36.052Z,92.24
2019-05-19T20:47:15.559Z,92.4
2019-05-19T20:48:55.516Z,92.49
2019-05-19T20:50:35.003Z,92.73
2019-05-19T20:52:15.037Z,92.69
2019-05-19T20:53:54.539Z,92.73
2019-05-19T20:55:34.294Z,92.83
2019-05-19T20:57:14.375Z,93
2019-05-19T20:58:55.330Z,93.12
2019-05-19T21:00:48.046Z,93.26
2019-05-19T21:02:35.989Z,93.62
2019-05-19T21:04:15.818Z,93.48
2019-05-19T21:05:55.568Z,93.74
2019-05-19T21:07:35.313Z,93.82
2019-05-19T21:09:15.178Z,93.76
2019-05-19T21:10:54.595Z,93.7
2019-05-19T21:12:34.211Z,93.79
2019-05-19T21:14:13.882Z,93.79
2019-05-19T21:15:53.582Z,93.85
2019-05-19T21:17:33.342Z,93.91
2019-05-19T21:19:12.376Z,94.04
2019-05-19T21:20:52.013Z,94.1
2019-05-19T21:22:31.629Z,94.14
2019-05-19T21:24:11.248Z,94.29
2019-05-19T21:25:50.895Z,94.13
2019-05-19T21:27:30.694Z,94.17
2019-05-19T21:29:10.527Z,94.17
2019-05-19T21:31:03.394Z,94.18
2019-05-19T21:32:44.518Z,94.36
2019-05-19T21:34:23.982Z,94.44
2019-05-19T21:36:03.410Z,94.43
2019-05-19T21:37:42.798Z,94.59
2019-05-19T21:39:22.203Z,94.71
2019-05-19T21:41:01.621Z,94.88
2019-05-19T21:42:41.117Z,94.92
2019-05-19T21:44:20.568Z,94.99
2019-05-19T21:46:00.028Z,94.91
2019-05-19T21:47:42.888Z,94.96
2019-05-19T21:49:22.300Z,94.91
2019-05-19T21:51:01.660Z,94.98
2019-05-19T21:52:40.499Z,94.98
2019-05-19T21:54:19.983Z,94.9
2019-05-19T21:55:59.405Z,94.91
2019-05-19T21:57:38.875Z,94.91
2019-05-19T21:59:18.334Z,94.87
2019-05-19T22:00:57.793Z,94.79
2019-05-19T22:02:37.115Z,94.77
2019-05-19T22:04:16.583Z,94.76
2019-05-19T22:05:56.029Z,94.81
2019-05-19T22:07:35.381Z,94.8
2019-05-19T22:09:14.725Z,94.74
2019-05-19T22:10:54.118Z,94.67
2019-05-19T22:12:33.464Z,94.73
2019-05-19T22:14:12.892Z,94.76
2019-05-19T22:15:52.294Z,94.76
2019-05-19T22:17:47.753Z,94.81
2019-05-19T22:19:27.181Z,94.85
2019-05-19T22:21:06.504Z,94.95
2019-05-19T22:22:45.837Z,95.1
2019-05-19T22:24:25.291Z,95.17
2019-05-19T22:26:04.815Z,95.23
2019-05-19T22:27:44.219Z,95.32
2019-05-19T22:29:23.671Z,95.39
2019-05-19T22:31:03.073Z,95.49
2019-05-19T22:32:42.515Z,95.56
2019-05-19T22:34:22.057Z,95.57
2019-05-19T22:36:01.398Z,95.72
2019-05-19T22:37:40.678Z,95.75
2019-05-19T22:39:20.883Z,95.8
2019-05-19T22:41:00.308Z,95.75
2019-05-19T22:42:39.701Z,95.72
2019-05-19T22:44:21.337Z,95.78
2019-05-19T22:46:00.750Z,95.81
2019-05-19T22:47:40.183Z,95.81
2019-05-19T22:49:19.600Z,95.81
2019-05-19T22:50:59.015Z,95.92
2019-05-19T22:52:38.440Z,95.99
2019-05-19T22:54:17.824Z,96.18
2019-05-19T22:55:57.271Z,96.29
2019-05-19T22:57:36.760Z,96.42
2019-05-19T22:59:21.747Z,96.61
2019-05-19T23:01:01.198Z,96.77
2019-05-19T23:02:40.603Z,96.89
2019-05-19T23:04:19.564Z,97
2019-05-19T23:05:59.097Z,97.1
2019-05-19T23:07:38.607Z,97.11
2019-05-19T23:09:17.938Z,97.2
2019-05-19T23:10:57.436Z,97.29
2019-05-19T23:12:36.846Z,97.37
2019-05-19T23:14:16.374Z,97.45
2019-05-19T23:15:56.005Z,97.43
2019-05-19T23:17:35.468Z,97.52
2019-05-19T23:19:14.878Z,97.63
2019-05-19T23:20:54.245Z,97.71
2019-05-19T23:22:33.708Z,97.71
2019-05-19T23:24:13.161Z,97.83
2019-05-19T23:25:52.600Z,97.96
2019-05-19T23:27:32.066Z,98.11
2019-05-19T23:29:11.486Z,98.19
2019-05-19T23:30:50.945Z,98.34
2019-05-19T23:32:30.348Z,98.37
2019-05-19T23:34:09.709Z,98.43
2019-05-19T23:35:54.334Z,98.74
2019-05-19T23:37:33.787Z,98.52
2019-05-19T23:39:13.216Z,98.62
2019-05-19T23:40:52.583Z,98.75
2019-05-19T23:42:42.392Z,99.08
2019-05-19T23:44:21.826Z,98.91
2019-05-19T23:46:01.226Z,98.93
2019-05-19T23:47:40.667Z,98.99
2019-05-19T23:49:20.060Z,99.03
2019-05-19T23:50:59.477Z,99.16
2019-05-19T23:52:38.908Z,99.26
2019-05-19T23:54:18.364Z,99.27
2019-05-19T23:55:57.834Z,99.36
2019-05-19T23:57:37.254Z,99.38
2019-05-19T23:59:16.684Z,99.45
